Latest Weather Observations for Dunalley

IDT60901

Issued at 7:31 pm EDT Monday 8 February 2016 (issued every 10 minutes, with the page automatically refreshed every 10 minutes)

About weather observations | Map of Hobart area stations | Latest observations for Hobart area | Other Formats
Station Details ID: 094254 Name: DUNALLEY (STROUD POINT) Lat: -42.90 Lon: 147.79 Height: 12.43 m
Data from the previous 72 hours. | See also: Recent months at Dunalley
Date/Time
EDT
Tmp

°C
App
Tmp
°C
Dew
Point
°C
Rel
Hum
%
Delta-T

°C
Wind Press
QNH
hPa
Press
MSL
hPa
Rain
since
9 am
mm
Dir
 
Spd
km/h
Gust
km/h
Spd
kts
Gust
kts
08/07:30pm 21.1 18.9 13.3 61 4.5 SSE 17 20 9 11 1018.6 1018.6 0.0
08/07:00pm 21.7 19.1 13.1 58 4.9 S 19 22 10 12 1018.2 1018.2 0.0
08/06:30pm 22.4 21.1 12.6 54 5.6 SSE 11 13 6 7 1017.9 1017.9 0.0
08/06:00pm 23.0 21.3 12.6 52 5.9 SSE 13 17 7 9 1017.7 1017.7 0.0
08/05:30pm 23.0 21.3 12.6 52 5.9 S 13 19 7 10 1017.5 1017.5 0.0
08/05:00pm 23.1 20.3 13.3 54 5.7 S 20 24 11 13 1017.4 1017.4 0.0
08/04:30pm 23.5 21.8 13.7 54 5.7 S 15 22 8 12 1017.2 1017.2 0.0
08/04:00pm 23.3 20.6 13.5 54 5.7 S 20 24 11 13 1017.1 1017.1 0.0
08/03:30pm 23.8 21.4 13.9 54 5.8 S 19 24 10 13 1017.0 1017.0 0.0
08/03:00pm 23.7 21.1 13.8 53 5.8 S 20 24 11 13 1017.2 1017.2 0.0
08/02:30pm 23.5 21.6 13.1 52 6.0 SW 15 24 8 13 1017.3 1017.3 0.0
08/02:00pm 24.4 21.1 11.7 45 7.2 SW 20 24 11 13 1017.4 1017.4 0.0
08/01:30pm 23.8 21.5 10.5 43 7.4 WSW 13 17 7 9 1017.6 1017.6 0.0
08/01:00pm 23.4 20.5 13.0 52 6.0 SW 20 24 11 13 1017.6 1017.6 0.0
08/12:30pm 23.1 20.8 13.0 53 5.8 SW 17 20 9 11 1017.7 1017.7 0.0
08/12:00pm 22.7 20.0 12.9 54 5.6 SW 19 26 10 14 1018.0 1018.0 0.0
08/11:30am 22.0 19.2 13.1 57 5.1 SW 20 24 11 13 1017.9 1017.9 0.0
08/11:00am 21.8 19.4 13.9 61 4.6 WSW 19 22 10 12 1018.1 1018.1 0.0
08/10:30am 21.3 19.6 13.7 62 4.4 WSW 15 20 8 11 1018.1 1018.1 0.0
08/10:00am 20.9 20.1 14.1 65 3.9 WSW 11 13 6 7 1018.1 1018.1 0.0
08/09:30am 20.3 17.6 13.5 65 3.9 SW 20 24 11 13 1018.6 1018.6 0.0
08/09:00am 19.7 19.8 15.4 76 2.5 SW 9 13 5 7 1018.3 1018.3 0.0
08/08:30am 19.1 17.1 15.0 77 2.4 SW 19 20 10 11 1018.2 1018.2 0.0
08/08:00am 18.7 18.5 16.7 88 1.2 ESE 13 17 7 9 1017.8 1017.8 0.0
08/07:30am 18.7 19.0 17.0 90 1.0 ESE 11 15 6 8 1017.7 1017.7 0.0
08/07:00am 17.5 18.4 16.0 91 0.9 ESE 6 9 3 5 1017.4 1017.4 0.0
08/06:30am 17.0 18.0 15.3 90 1.0 ESE 4 6 2 3 1017.1 1017.1 0.0
08/06:00am 17.5 18.1 15.7 89 1.1 ESE 7 7 4 4 1017.0 1017.0 0.0
08/05:30am 17.8 18.7 16.0 89 1.1 ESE 6 7 3 4 1016.8 1016.8 0.0
08/05:00am 17.5 18.1 15.7 89 1.1 ESE 7 9 4 5 1016.7 1016.7 0.0
08/04:30am 17.9 19.1 15.9 88 1.2 ESE 4 4 2 2 1016.6 1016.6 0.0
08/04:00am 18.1 20.1 15.9 87 1.3 CALM 0 0 0 0 1016.7 1016.7 0.0
08/03:30am 18.3 20.2 15.7 85 1.5 CALM 0 0 0 0 1016.8 1016.8 0.0
08/03:00am 18.5 20.0 15.6 83 1.7 ESE 2 4 1 2 1017.1 1017.1 0.0
08/02:30am 18.8 19.6 15.9 83 1.7 ESE 6 7 3 4 1017.2 1017.2 0.0
08/02:00am 19.0 19.7 16.2 84 1.7 ESE 7 9 4 5 1017.3 1017.3 0.0
08/01:30am 19.1 21.2 16.3 84 1.7 CALM 0 7 0 4 1017.6 1017.6 0.0
08/01:00am 19.1 21.1 16.1 83 1.8 CALM 0 0 0 0 1017.8 1017.8 0.0
08/12:30am 19.1 21.1 16.1 83 1.8 CALM 0 4 0 2 1017.8 1017.8 0.0
08/12:00am 19.1 20.3 16.0 82 1.8 ESE 4 6 2 3 1017.8 1017.8 0.0
 
Date/Time
EDT
Tmp

°C
App
Tmp
°C
Dew
Point
°C
Rel
Hum
%
Delta-T

°C
Wind Press
QNH
hPa
Press
MSL
hPa
Rain
since
9 am
mm
Dir
 
Spd
km/h
Gust
km/h
Spd
kts
Gust
kts
07/11:30pm 19.1 19.8 16.0 82 1.8 ESE 7 9 4 5 1017.9 1017.9 0.0
07/11:00pm 19.1 19.8 16.0 82 1.8 ESE 7 11 4 6 1018.1 1018.1 0.0
07/10:30pm 19.3 20.2 16.0 81 2.0 ESE 6 7 3 4 1018.3 1018.3 0.0
07/10:00pm 19.3 20.0 15.6 79 2.2 ESE 6 7 3 4 1018.3 1018.3 0.0
07/09:30pm 19.5 20.1 15.8 79 2.2 ESE 7 9 4 5 1018.0 1018.0 0.0
07/09:00pm 19.5 19.6 15.6 78 2.3 ESE 9 11 5 6 1017.7 1017.7 0.0
07/08:30pm 19.5 19.2 15.4 77 2.4 ESE 11 15 6 8 1017.5 1017.5 0.0
07/08:00pm 19.7 18.0 15.8 78 2.3 ESE 19 24 10 13 1017.3 1017.3 0.0
07/07:30pm 19.9 18.2 16.2 79 2.2 ESE 20 24 11 13 1017.2 1017.2 0.0
07/07:00pm 20.1 18.0 16.1 78 2.4 E 22 28 12 15 1016.8 1016.8 0.0
07/06:30pm 20.4 17.9 16.2 77 2.5 ENE 24 32 13 17 1016.5 1016.5 0.0
07/06:00pm 21.1 18.2 16.1 73 3.0 NE 26 35 14 19 1016.2 1016.2 0.0
07/05:30pm 21.7 17.8 15.5 68 3.7 NE 30 37 16 20 1016.2 1016.2 0.0
07/05:00pm 22.0 17.8 15.8 68 3.7 NE 32 39 17 21 1016.2 1016.2 0.0
07/04:30pm 22.6 19.1 16.6 69 3.7 NE 30 39 16 21 1016.3 1016.3 0.0
07/04:00pm 23.4 20.4 16.9 67 4.0 NE 28 33 15 18 1016.1 1016.1 0.0
07/03:30pm 24.0 22.6 16.5 63 4.6 E 19 24 10 13 1016.4 1016.4 0.0
07/03:00pm 23.1 22.9 16.6 67 4.0 S 13 19 7 10 1016.7 1016.7 0.0
07/02:30pm 22.5 23.1 16.8 70 3.5 S 9 13 5 7 1017.0 1017.0 0.0
07/02:00pm 21.9 22.5 15.3 66 3.9 S 6 7 3 4 1017.2 1017.2 0.0
07/01:30pm 22.2 23.2 16.9 72 3.2 SSW 7 9 4 5 1017.5 1017.5 0.0
07/01:00pm 21.2 22.1 16.0 72 3.1 SSW 6 7 3 4 1017.6 1017.6 0.0
07/12:30pm 21.3 22.1 15.8 71 3.3 SSW 6 7 3 4 1017.9 1017.9 0.0
07/12:00pm 20.6 21.3 15.6 73 3.0 SSW 6 7 3 4 1018.1 1018.1 0.0
07/11:30am 20.7 21.3 15.7 73 3.0 S 7 11 4 6 1018.2 1018.2 0.0
07/11:00am 19.8 20.1 15.9 78 2.3 SSW 9 13 5 7 1018.4 1018.4 0.0
07/10:30am 19.8 19.4 16.3 80 2.1 SSW 13 19 7 10 1018.5 1018.5 0.0
07/10:00am 18.8 17.0 15.9 83 1.7 SSW 20 24 11 13 1018.5 1018.5 0.0
07/09:30am 18.3 16.0 15.7 85 1.5 SSW 22 28 12 15 1018.4 1018.4 0.0
07/09:00am 18.9 17.1 16.1 84 1.7 SW 20 22 11 12 1018.3 1018.3 0.0
07/08:30am 18.7 17.5 16.1 85 1.5 ESE 17 20 9 11 1018.1 1018.1 0.0
07/08:00am 18.6 18.5 16.9 90 1.0 NE 13 17 7 9 1018.0 1018.0 0.0
07/07:30am 18.1 18.1 16.3 89 1.1 NE 11 15 6 8 1017.7 1017.7 0.0
07/07:00am 17.5 18.4 16.0 91 0.9 NE 6 7 3 4 1017.5 1017.5 0.0
07/06:30am 16.6 16.9 15.0 90 0.9 NE 7 9 4 5 1017.3 1017.3 0.0
07/06:00am 16.9 17.4 15.1 89 1.0 NE 6 7 3 4 1017.1 1017.1 0.0
07/05:30am 17.0 17.3 14.6 86 1.4 NE 6 9 3 5 1016.7 1016.7 0.0
07/05:00am 16.7 16.7 13.6 82 1.7 NE 6 7 3 4 1016.3 1016.3 0.0
07/04:30am 16.3 16.2 13.4 83 1.6 NE 6 9 3 5 1016.2 1016.2 0.0
07/04:00am 16.8 17.3 13.9 83 1.6 NE 4 6 2 3 1016.2 1016.2 0.0
07/03:30am 18.1 17.1 15.7 86 1.4 NE 15 20 8 11 1016.3 1016.3 0.0
07/03:00am 18.0 16.7 15.8 87 1.3 NNE 17 20 9 11 1016.4 1016.4 0.0
07/02:30am 16.8 16.8 14.3 85 1.4 NNE 7 9 4 5 1016.7 1016.7 0.0
07/02:00am 17.3 17.4 14.4 83 1.7 NNE 7 9 4 5 1016.8 1016.8 0.0
07/01:30am 17.7 18.4 14.4 81 1.9 NNE 4 9 2 5 1017.0 1017.0 0.0
07/01:00am 18.5 17.4 15.2 81 1.9 NNE 15 19 8 10 1017.1 1017.1 0.0
07/12:30am 18.7 17.2 15.2 80 2.1 NE 17 20 9 11 1017.1 1017.1 0.0
07/12:00am 18.9 17.0 15.2 79 2.2 NNE 19 24 10 13 1017.2 1017.2 0.0
 
Date/Time
EDT
Tmp

°C
App
Tmp
°C
Dew
Point
°C
Rel
Hum
%
Delta-T

°C
Wind Press
QNH
hPa
Press
MSL
hPa
Rain
since
9 am
mm
Dir
 
Spd
km/h
Gust
km/h
Spd
kts
Gust
kts
06/11:30pm 18.4 19.2 14.9 80 2.0 NNE 4 7 2 4 1017.4 1017.4 0.0
06/11:00pm 18.9 19.0 15.4 80 2.1 NNE 9 15 5 8 1017.5 1017.5 0.0
06/10:30pm 19.0 18.8 15.7 81 2.0 NE 11 19 6 10 1017.8 1017.8 0.0
06/10:00pm 19.0 19.3 15.9 82 1.8 NE 9 15 5 8 1018.0 1018.0 0.0
06/09:30pm 19.4 19.0 16.1 81 2.0 NE 13 17 7 9 1017.8 1017.8 0.0
06/09:00pm 19.6 19.5 16.1 80 2.1 NE 11 13 6 7 1017.8 1017.8 0.0
06/08:30pm 20.1 18.4 16.3 79 2.3 NE 20 26 11 14 1017.5 1017.5 0.0
06/08:00pm 20.2 18.7 16.2 78 2.4 ENE 19 22 10 12 1017.5 1017.5 0.0
06/07:30pm 20.6 18.6 15.6 73 3.0 ENE 20 24 11 13 1017.5 1017.5 0.0
06/07:00pm 21.1 19.7 16.5 75 2.8 ENE 19 24 10 13 1017.6 1017.6 0.0
06/06:30pm 21.3 18.8 15.2 68 3.6 ENE 22 30 12 16 1017.5 1017.5 0.0
06/06:00pm 21.7 18.6 14.6 64 4.2 ENE 24 30 13 16 1017.7 1017.7 0.0
06/05:30pm 21.8 18.6 14.2 62 4.4 ENE 24 32 13 17 1017.8 1017.8 0.0
06/05:00pm 22.1 18.6 14.5 62 4.5 ENE 26 32 14 17 1018.0 1018.0 0.0
06/04:30pm 23.6 20.4 14.3 56 5.5 ENE 24 30 13 16 1018.0 1018.0 0.0
06/04:00pm 24.0 21.5 15.2 58 5.3 ENE 22 28 12 15 1018.2 1018.2 0.0
06/03:30pm 24.1 21.2 15.1 57 5.4 NE 24 30 13 16 1018.5 1018.5 0.0
06/03:00pm 23.9 21.4 15.1 58 5.3 ENE 22 26 12 14 1018.8 1018.8 0.0
06/02:30pm 23.6 22.3 14.9 58 5.2 ENE 15 20 8 11 1019.1 1019.1 0.0
06/02:00pm 23.7 21.2 15.2 59 5.1 NE 22 28 12 15 1019.2 1019.2 0.0
06/01:30pm 24.8 22.7 15.1 54 5.8 NE 20 26 11 14 1019.3 1019.3 0.0
06/01:00pm 23.8 21.7 14.8 57 5.3 NE 19 26 10 14 1019.5 1019.5 0.0
06/12:30pm 22.6 20.5 14.7 61 4.7 NE 19 24 10 13 1019.9 1019.9 0.0
06/12:00pm 22.6 20.5 14.7 61 4.7 NE 19 24 10 13 1020.1 1020.1 0.0
06/11:30am 23.3 20.8 15.1 60 4.9 NE 22 26 12 14 1020.3 1020.3 0.0
06/11:00am 22.3 20.1 14.9 63 4.4 NE 20 26 11 14 1020.4 1020.4 0.0
06/10:30am 22.3 20.4 15.2 64 4.2 NE 19 22 10 12 1020.7 1020.7 0.0
06/10:00am 21.7 20.0 14.6 64 4.2 NE 17 19 9 10 1020.9 1020.9 0.0
06/09:30am 21.5 20.1 15.6 69 3.5 ENE 17 22 9 12 1021.0 1021.0 0.0
06/09:00am 20.9 19.2 14.8 68 3.6 NE 17 22 9 12 1021.1 1021.1 0.0
06/08:30am 20.1 19.1 14.5 70 3.3 NE 13 20 7 11 1021.0 1021.0 0.0
06/08:00am 19.3 17.4 14.3 73 2.9 NE 17 20 9 11 1020.8 1020.8 0.0
06/07:30am 18.6 17.5 14.3 76 2.5 NNE 13 19 7 10 1020.5 1020.5 0.0
06/07:00am 17.7 16.5 14.0 79 2.1 NNE 13 15 7 8 1020.3 1020.3 0.0
06/06:30am 17.2 16.0 14.1 82 1.8 NNE 13 17 7 9 1020.1 1020.1 0.0
06/06:00am 17.0 15.1 14.1 83 1.6 NNE 17 22 9 12 1020.0 1020.0 0.0
06/05:30am 17.0 15.4 13.9 82 1.8 NNE 15 19 8 10 1020.0 1020.0 0.0
06/05:00am 17.1 14.7 13.8 81 1.9 NNE 19 20 10 11 1019.9 1019.9 0.0
06/04:30am 16.6 16.3 13.3 81 1.8 NNE 7 9 4 5 1020.2 1020.2 0.0
06/04:00am 16.8 15.7 13.1 79 2.1 NNE 11 15 6 8 1020.5 1020.5 0.0
06/03:30am 17.6 16.2 13.5 77 2.3 NNE 13 17 7 9 1020.9 1020.9 0.0
06/03:00am 17.7 15.0 13.4 76 2.4 NE 20 24 11 13 1021.3 1021.3 0.0
06/02:30am 17.6 15.9 13.5 77 2.3 ENE 15 20 8 11 1021.8 1021.8 0.0
06/02:00am 17.4 16.7 13.3 77 2.3 ENE 9 13 5 7 1022.1 1022.1 0.0
06/01:30am 17.4 16.9 12.7 74 2.6 ENE 7 11 4 6 1022.6 1022.6 0.0
06/01:00am 17.5 16.7 13.0 75 2.5 ENE 9 11 5 6 1023.1 1023.1 0.0
06/12:30am 17.5 16.3 12.8 74 2.6 ENE 11 15 6 8 1023.3 1023.3 0.0
06/12:00am 17.4 16.3 13.1 76 2.4 ENE 11 15 6 8 1023.5 1023.5 0.0
 
Date/Time
EDT
Tmp

°C
App
Tmp
°C
Dew
Point
°C
Rel
Hum
%
Delta-T

°C
Wind Press
QNH
hPa
Press
MSL
hPa
Rain
since
9 am
mm
Dir
 
Spd
km/h
Gust
km/h
Spd
kts
Gust
kts
05/11:30pm 17.4 15.9 13.1 76 2.4 ENE 13 17 7 9 1023.8 1023.8 0.0
05/11:00pm 17.1 15.6 13.2 78 2.2 ENE 13 19 7 10 1023.8 1023.8 0.0
05/10:30pm 16.9 15.3 12.8 77 2.3 E 13 15 7 8 1024.0 1024.0 0.0
05/10:00pm 16.9 15.3 12.8 77 2.3 E 13 19 7 10 1024.0 1024.0 0.0
05/09:30pm 16.9 15.2 12.6 76 2.4 E 13 17 7 9 1023.9 1023.9 0.0
05/09:00pm 17.0 15.6 12.3 74 2.6 E 11 17 6 9 1023.6 1023.6 0.0
05/08:30pm 17.4 16.1 12.5 73 2.7 E 11 15 6 8 1023.2 1023.2 0.0
05/08:00pm 17.8 16.1 12.3 70 3.0 ENE 13 19 7 10 1023.0 1023.0 0.0

Latest Capital City Observations: Canberra | Sydney | Melbourne | Brisbane | Adelaide | Perth | Hobart | Darwin

Other Formats:

Comma delimited format used in spreadsheet applications
http://www.bom.gov.au/fwo/IDT60901/IDT60901.94951.axf

JavaScript Object Notation format (JSON) in row-major order
http://www.bom.gov.au/fwo/IDT60901/IDT60901.94951.json